Time;durP1;ratioP1;P1;durP2;ratioP2;P2;SDS_P1;SDS_P2;PMS_P1;PMS_P2;Temp;Humidity;BMP_temperature;BMP_pressure;BME280_temperature;BME280_humidity;BME280_pressure;Samples;Min_cycle;Max_cycle;Signal;HPM_P1;HPM_P2
2023/07/07 00:00:53;;;;;;;7.83;5.03;;;22.90;68.30;;;;;;5018096;28;20192;-67
2023/07/07 00:03:19;;;;;;;10.03;4.97;;;22.90;69.60;;;;;;5020988;28;20199;-67
2023/07/07 00:05:46;;;;;;;5.73;5.00;;;22.90;68.80;;;;;;5022251;28;20304;-67
2023/07/07 00:08:11;;;;;;;12.90;5.10;;;22.90;69.40;;;;;;5020790;28;20574;-67
2023/07/07 00:10:42;;;;;;;5.27;4.53;;;22.90;70.00;;;;;;5019840;28;20439;-67
2023/07/07 00:13:12;;;;;;;4.83;4.10;;;22.80;70.50;;;;;;5022523;28;20312;-67
2023/07/07 00:15:43;;;;;;;7.37;5.10;;;22.80;70.50;;;;;;5021806;28;20419;-67
2023/07/07 00:18:09;;;;;;;6.47;4.47;;;22.80;70.70;;;;;;5019547;28;20466;-67
2023/07/07 00:20:35;;;;;;;5.13;4.63;;;22.70;70.30;;;;;;5019156;28;20451;-67
2023/07/07 00:23:00;;;;;;;5.93;5.13;;;22.60;70.20;;;;;;5019944;28;20450;-67
2023/07/07 00:25:26;;;;;;;6.00;4.40;;;22.60;70.30;;;;;;5020929;28;20719;-67
2023/07/07 00:27:51;;;;;;;5.10;4.60;;;22.50;70.20;;;;;;5021693;28;20187;-67
2023/07/07 00:30:17;;;;;;;4.53;4.13;;;22.50;70.40;;;;;;5023961;28;20255;-68
2023/07/07 00:32:42;;;;;;;7.37;4.93;;;22.40;70.50;;;;;;5019589;28;20174;-68
2023/07/07 00:35:08;;;;;;;5.90;4.97;;;22.40;70.90;;;;;;5021245;28;20184;-67
2023/07/07 00:37:35;;;;;;;7.13;4.80;;;22.30;71.10;;;;;;5016539;28;20214;-67
2023/07/07 00:40:01;;;;;;;5.13;4.50;;;22.20;71.20;;;;;;5024333;28;20200;-67
2023/07/07 00:42:27;;;;;;;5.90;4.87;;;22.20;71.30;;;;;;5025844;28;20450;-67
2023/07/07 00:45:08;;;;;;;5.97;5.37;;;22.20;71.50;;;;;;5022192;28;20460;-67
2023/07/07 00:47:56;;;;;;;5.53;4.80;;;22.10;71.70;;;;;;5019569;28;20199;-67
2023/07/07 00:50:26;;;;;;;6.10;4.97;;;22.00;71.80;;;;;;5024186;28;20815;-67
2023/07/07 00:52:51;;;;;;;7.20;4.80;;;22.00;72.00;;;;;;5027583;28;20431;-67
2023/07/07 00:55:24;;;;;;;6.20;4.43;;;22.00;72.10;;;;;;5026852;28;20461;-67
2023/07/07 00:57:50;;;;;;;8.60;4.50;;;22.00;72.20;;;;;;5022891;28;20441;-67
2023/07/07 01:00:16;;;;;;;6.63;5.00;;;21.90;72.50;;;;;;5023314;28;21175;-67
2023/07/07 01:02:51;;;;;;;6.50;5.23;;;21.90;72.60;;;;;;5021604;28;20195;-68
2023/07/07 01:05:17;;;;;;;5.10;4.10;;;21.90;72.90;;;;;;5021973;28;20462;-67
2023/07/07 01:07:51;;;;;;;5.33;4.30;;;21.90;73.30;;;;;;5020712;28;20540;-68
2023/07/07 01:10:19;;;;;;;6.37;4.87;;;21.80;73.50;;;;;;5021230;28;20177;-68
2023/07/07 01:12:48;;;;;;;10.73;5.50;;;21.70;74.10;;;;;;5026256;28;20541;-68
2023/07/07 01:15:14;;;;;;;6.73;5.20;;;21.70;74.30;;;;;;5025656;28;20432;-67
2023/07/07 01:18:25;;;;;;;7.13;5.37;;;21.70;74.40;;;;;;5023599;28;20427;-67
2023/07/07 01:21:14;;;;;;;9.73;4.80;;;21.60;74.80;;;;;;4959679;28;20193;-67
2023/07/07 01:24:03;;;;;;;4.87;4.37;;;21.60;74.90;;;;;;4959457;28;20431;-67
2023/07/07 01:26:45;;;;;;;4.93;4.40;;;21.50;74.90;;;;;;5009927;28;20468;-67
2023/07/07 01:29:28;;;;;;;5.40;4.50;;;21.40;75.00;;;;;;5026614;28;20622;-67
2023/07/07 01:32:00;;;;;;;6.60;4.80;;;21.40;75.60;;;;;;5025248;28;20500;-67
2023/07/07 01:34:26;;;;;;;5.73;5.13;;;21.30;75.70;;;;;;5025601;28;20463;-67
2023/07/07 01:36:51;;;;;;;10.13;4.57;;;21.30;75.90;;;;;;5031365;28;20451;-67
2023/07/07 01:39:17;;;;;;;6.23;4.80;;;21.20;76.30;;;;;;5024293;28;20217;-67
2023/07/07 01:41:45;;;;;;;5.93;4.80;;;21.30;76.90;;;;;;5024159;28;20262;-67
2023/07/07 01:44:14;;;;;;;5.10;4.60;;;21.20;77.20;;;;;;5025104;28;20201;-67
2023/07/07 01:46:48;;;;;;;5.67;4.70;;;21.20;77.30;;;;;;5021519;28;20544;-67
2023/07/07 01:49:20;;;;;;;8.60;6.93;;;21.20;77.70;;;;;;5018767;28;20450;-67
2023/07/07 01:51:50;;;;;;;9.30;6.37;;;21.10;78.00;;;;;;5023203;28;20419;-67
2023/07/07 01:54:16;;;;;;;6.43;5.83;;;21.10;78.20;;;;;;5025039;28;20431;-67
2023/07/07 01:56:45;;;;;;;6.80;5.43;;;21.10;78.30;;;;;;5023927;28;20936;-68
2023/07/07 01:59:12;;;;;;;8.00;4.80;;;21.10;78.50;;;;;;5025272;28;21074;-67
2023/07/07 02:01:38;;;;;;;5.47;4.70;;;21.10;78.50;;;;;;5018535;28;20447;-67
2023/07/07 02:04:03;;;;;;;5.70;4.60;;;21.00;78.80;;;;;;5015532;28;20712;-67
2023/07/07 02:06:29;;;;;;;5.90;4.80;;;21.00;78.90;;;;;;5019102;28;20795;-67
2023/07/07 02:08:54;;;;;;;6.50;4.60;;;21.00;79.20;;;;;;5018964;28;20208;-67
2023/07/07 02:11:20;;;;;;;5.83;5.20;;;20.90;79.10;;;;;;5023075;28;21078;-67
2023/07/07 02:13:45;;;;;;;6.63;5.77;;;20.90;79.20;;;;;;5022582;28;21054;-67
2023/07/07 02:16:11;;;;;;;5.80;4.43;;;20.90;79.40;;;;;;5022094;28;20578;-68
2023/07/07 02:18:37;;;;;;;6.80;5.37;;;20.80;79.40;;;;;;5022500;28;20309;-67
2023/07/07 02:21:05;;;;;;;4.90;4.40;;;20.80;79.70;;;;;;5024201;28;20180;-67
2023/07/07 02:23:30;;;;;;;6.10;5.50;;;20.80;79.80;;;;;;5021863;28;20440;-67
2023/07/07 02:25:56;;;;;;;12.33;4.83;;;20.80;80.10;;;;;;5023632;28;20470;-67
2023/07/07 02:28:22;;;;;;;5.50;4.93;;;20.80;80.10;;;;;;5027883;28;20524;-67
2023/07/07 02:30:47;;;;;;;6.57;5.13;;;20.70;80.00;;;;;;5019526;28;20294;-67
2023/07/07 02:33:15;;;;;;;7.60;4.57;;;20.70;80.00;;;;;;5021760;28;20187;-67
2023/07/07 02:35:41;;;;;;;4.90;4.40;;;20.70;80.10;;;;;;5022538;28;20271;-67
2023/07/07 02:38:07;;;;;;;6.90;5.10;;;20.70;80.10;;;;;;5024549;28;20856;-67
2023/07/07 02:40:32;;;;;;;6.73;4.50;;;20.70;80.10;;;;;;5023547;28;20530;-68
2023/07/07 02:42:58;;;;;;;5.43;4.93;;;20.60;79.90;;;;;;5023433;28;20530;-67
2023/07/07 02:45:24;;;;;;;6.20;4.60;;;20.60;80.00;;;;;;5024806;28;20563;-67
2023/07/07 02:47:49;;;;;;;5.30;4.73;;;20.50;79.80;;;;;;5020947;28;20216;-67
2023/07/07 02:50:15;;;;;;;5.00;4.30;;;20.50;80.00;;;;;;5022969;28;20184;-67
2023/07/07 02:52:40;;;;;;;5.23;4.00;;;20.50;80.10;;;;;;5023536;28;20301;-67
2023/07/07 02:55:06;;;;;;;6.33;4.20;;;20.50;80.10;;;;;;5022431;28;20266;-67
2023/07/07 02:57:32;;;;;;;5.40;4.90;;;20.40;80.10;;;;;;5015592;28;20223;-67
2023/07/07 02:59:58;;;;;;;6.70;4.80;;;20.40;80.20;;;;;;5024559;28;20200;-67
2023/07/07 03:02:23;;;;;;;4.80;4.30;;;20.40;80.40;;;;;;5021320;28;20665;-68
2023/07/07 03:04:50;;;;;;;6.50;4.97;;;20.30;80.50;;;;;;5020011;28;20745;-67
2023/07/07 03:07:15;;;;;;;6.30;4.57;;;20.30;80.60;;;;;;5020493;28;20228;-67
2023/07/07 03:09:41;;;;;;;7.20;4.90;;;20.30;80.60;;;;;;5021954;28;20452;-67
2023/07/07 03:12:07;;;;;;;5.47;4.97;;;20.30;80.80;;;;;;5021136;28;20204;-67
2023/07/07 03:14:33;;;;;;;6.80;4.67;;;20.30;81.00;;;;;;5018082;28;20188;-67
2023/07/07 03:16:58;;;;;;;4.97;4.47;;;20.20;81.10;;;;;;5018596;28;20196;-67
2023/07/07 03:19:24;;;;;;;5.20;4.40;;;20.20;81.40;;;;;;5012443;28;20682;-67
2023/07/07 03:21:53;;;;;;;6.20;4.87;;;20.10;81.70;;;;;;5010568;28;20618;-67
2023/07/07 03:24:18;;;;;;;6.40;5.10;;;20.10;82.00;;;;;;5024147;28;20176;-67
2023/07/07 03:26:44;;;;;;;6.30;4.40;;;20.10;82.10;;;;;;5016260;28;20889;-67
2023/07/07 03:29:10;;;;;;;5.77;5.03;;;20.00;82.50;;;;;;5021330;28;20642;-67
2023/07/07 03:31:36;;;;;;;5.23;4.73;;;20.00;82.70;;;;;;5013202;28;20538;-67
2023/07/07 03:34:04;;;;;;;5.90;4.70;;;20.00;83.00;;;;;;5010753;28;20243;-67
2023/07/07 03:36:32;;;;;;;6.40;4.87;;;19.90;83.40;;;;;;5015393;28;20243;-67
2023/07/07 03:38:58;;;;;;;5.27;4.77;;;19.90;83.60;;;;;;5014138;28;20457;-67
2023/07/07 03:41:26;;;;;;;8.60;4.57;;;19.90;83.80;;;;;;5013835;28;20439;-67
2023/07/07 03:43:53;;;;;;;7.60;4.90;;;19.90;83.80;;;;;;5015871;28;20184;-67
2023/07/07 03:46:21;;;;;;;6.97;4.90;;;19.90;83.80;;;;;;5019716;28;21059;-67
2023/07/07 03:48:48;;;;;;;6.30;5.00;;;19.90;84.00;;;;;;5020263;28;20531;-67
2023/07/07 03:51:15;;;;;;;4.73;4.20;;;19.80;84.40;;;;;;5022133;28;20434;-67
2023/07/07 03:53:41;;;;;;;7.57;5.17;;;19.80;84.80;;;;;;5019314;28;20970;-67
2023/07/07 03:56:08;;;;;;;5.60;4.23;;;19.80;85.30;;;;;;5015802;28;20451;-67
2023/07/07 03:58:34;;;;;;;5.90;4.90;;;19.80;85.60;;;;;;5021614;28;20470;-67
2023/07/07 04:01:09;;;;;;;5.13;4.63;;;19.70;86.00;;;;;;5015696;28;20446;-67
2023/07/07 04:03:34;;;;;;;6.93;4.80;;;19.70;86.30;;;;;;5019897;28;20427;-67
2023/07/07 04:06:01;;;;;;;10.67;4.97;;;19.70;86.80;;;;;;5017906;28;20467;-67
2023/07/07 04:08:27;;;;;;;6.63;5.27;;;19.70;87.10;;;;;;5023792;28;20199;-67
2023/07/07 04:11:03;;;;;;;6.50;5.47;;;19.60;87.20;;;;;;5016632;28;20522;-67
2023/07/07 04:13:30;;;;;;;5.63;4.83;;;19.60;87.70;;;;;;5022886;28;20192;-67
2023/07/07 04:16:03;;;;;;;5.40;4.87;;;19.60;88.10;;;;;;5022923;28;20760;-67
2023/07/07 04:18:31;;;;;;;6.47;5.33;;;19.60;88.40;;;;;;5016930;28;20558;-67
2023/07/07 04:21:01;;;;;;;5.10;4.30;;;19.50;88.40;;;;;;5018494;28;20486;-67
2023/07/07 04:23:27;;;;;;;5.30;4.37;;;19.50;88.70;;;;;;5022157;28;20441;-67
2023/07/07 04:25:53;;;;;;;5.20;4.70;;;19.50;88.80;;;;;;5021906;28;20945;-67
2023/07/07 04:28:19;;;;;;;5.27;4.60;;;19.40;88.80;;;;;;5023357;28;21335;-67
2023/07/07 04:30:49;;;;;;;6.30;5.50;;;19.40;89.00;;;;;;5022933;28;20270;-67
2023/07/07 04:33:14;;;;;;;8.40;6.87;;;19.50;89.30;;;;;;5021037;28;20185;-67
2023/07/07 04:35:40;;;;;;;6.03;5.43;;;19.40;89.60;;;;;;5026219;28;21151;-67
2023/07/07 04:38:05;;;;;;;6.60;5.37;;;19.40;89.90;;;;;;5021926;28;20730;-67
2023/07/07 04:40:31;;;;;;;7.03;5.80;;;19.50;90.00;;;;;;5021528;28;20567;-67
2023/07/07 04:42:57;;;;;;;5.90;4.57;;;19.50;90.20;;;;;;5022614;28;20562;-67
2023/07/07 04:45:22;;;;;;;6.10;5.20;;;19.40;90.30;;;;;;5027748;28;20188;-67
2023/07/07 04:47:48;;;;;;;11.93;5.23;;;19.50;90.40;;;;;;5018252;28;20447;-67
2023/07/07 04:50:13;;;;;;;5.93;5.20;;;19.50;90.40;;;;;;5022338;28;20193;-67
2023/07/07 04:52:39;;;;;;;6.53;5.10;;;19.50;90.40;;;;;;5022346;28;20202;-67
2023/07/07 04:55:05;;;;;;;5.50;5.00;;;19.40;90.40;;;;;;5021763;28;20193;-67
2023/07/07 04:57:31;;;;;;;6.37;4.57;;;19.50;90.60;;;;;;5020256;28;20184;-67
2023/07/07 04:59:56;;;;;;;6.77;5.00;;;19.50;90.60;;;;;;5019376;28;20449;-67
2023/07/07 05:02:26;;;;;;;5.33;4.83;;;19.50;90.50;;;;;;5027067;28;20327;-67
2023/07/07 05:04:51;;;;;;;5.30;4.80;;;19.50;90.50;;;;;;5024485;28;20191;-67
2023/07/07 05:07:17;;;;;;;8.13;5.03;;;19.50;90.50;;;;;;5023870;28;21247;-67
2023/07/07 05:09:42;;;;;;;6.63;4.70;;;19.50;90.60;;;;;;5020576;28;20204;-67
2023/07/07 05:12:10;;;;;;;6.07;4.90;;;19.50;90.50;;;;;;5018784;28;20203;-67
2023/07/07 05:14:35;;;;;;;5.40;4.53;;;19.60;90.60;;;;;;5025527;28;20188;-67
2023/07/07 05:17:01;;;;;;;6.23;4.50;;;19.60;90.80;;;;;;5023957;28;20435;-67
2023/07/07 05:19:27;;;;;;;5.60;5.10;;;19.60;90.60;;;;;;5024691;28;20625;-67
2023/07/07 05:21:52;;;;;;;6.97;5.20;;;19.60;90.60;;;;;;5020897;28;20974;-67
2023/07/07 05:24:18;;;;;;;5.17;4.77;;;19.60;90.70;;;;;;5021204;28;20588;-67
2023/07/07 05:26:43;;;;;;;7.23;5.13;;;19.70;90.80;;;;;;5020733;28;20572;-67
2023/07/07 05:29:09;;;;;;;5.93;4.60;;;19.70;90.80;;;;;;5025782;28;20196;-67
2023/07/07 05:31:35;;;;;;;6.53;4.40;;;19.70;90.70;;;;;;5016287;28;20181;-68
2023/07/07 05:34:01;;;;;;;15.60;5.67;;;19.70;90.70;;;;;;5022338;28;20279;-67
2023/07/07 05:36:27;;;;;;;5.70;4.70;;;19.70;90.60;;;;;;5023910;28;20526;-67
2023/07/07 05:38:53;;;;;;;5.57;4.83;;;19.80;90.60;;;;;;5017575;28;20299;-67
2023/07/07 05:41:18;;;;;;;6.73;5.73;;;19.80;90.50;;;;;;5018335;28;20443;-67
2023/07/07 05:43:44;;;;;;;5.20;4.40;;;19.80;90.50;;;;;;5021848;28;20185;-67
2023/07/07 05:46:15;;;;;;;9.80;4.90;;;19.80;90.50;;;;;;5017961;28;20280;-67
2023/07/07 05:48:41;;;;;;;6.13;4.67;;;19.80;90.60;;;;;;5017667;28;20244;-67
2023/07/07 05:51:10;;;;;;;5.90;4.93;;;19.80;90.70;;;;;;5023080;28;20445;-67
2023/07/07 05:53:40;;;;;;;7.70;4.77;;;19.90;90.70;;;;;;5018738;28;20531;-67
2023/07/07 05:56:10;;;;;;;9.37;5.00;;;19.90;90.70;;;;;;5017519;28;20474;-67
2023/07/07 05:58:36;;;;;;;8.60;7.17;;;19.90;90.70;;;;;;5015586;28;20998;-67
2023/07/07 06:01:02;;;;;;;6.33;4.97;;;20.00;90.90;;;;;;5022527;28;20431;-67
2023/07/07 06:03:29;;;;;;;7.17;6.13;;;20.00;91.00;;;;;;5024916;28;20234;-68
2023/07/07 06:05:55;;;;;;;6.20;4.97;;;20.10;91.10;;;;;;5018420;28;21215;-67
2023/07/07 06:08:20;;;;;;;7.33;5.77;;;20.10;91.30;;;;;;5027191;28;20463;-67
2023/07/07 06:10:50;;;;;;;12.20;5.60;;;20.20;91.50;;;;;;5022335;28;20211;-68
2023/07/07 06:13:17;;;;;;;11.30;6.77;;;20.20;91.70;;;;;;5018739;28;20754;-67
2023/07/07 06:15:44;;;;;;;12.10;6.30;;;20.30;91.70;;;;;;5022989;28;20451;-67
2023/07/07 06:18:09;;;;;;;9.80;6.27;;;20.40;91.70;;;;;;5025009;28;20443;-67
2023/07/07 06:20:35;;;;;;;7.20;4.80;;;20.40;91.80;;;;;;5023106;28;20549;-67
2023/07/07 06:23:01;;;;;;;8.13;5.40;;;20.50;91.80;;;;;;5026308;28;20206;-68
2023/07/07 06:25:26;;;;;;;7.13;5.80;;;20.50;91.80;;;;;;5019702;28;20189;-67
2023/07/07 06:27:52;;;;;;;6.30;5.23;;;20.50;91.80;;;;;;5022625;28;20193;-67
2023/07/07 06:30:18;;;;;;;7.23;5.50;;;20.60;91.90;;;;;;5022084;28;20185;-67
2023/07/07 06:32:43;;;;;;;8.50;5.70;;;20.60;91.90;;;;;;5024054;28;20466;-67
2023/07/07 06:35:09;;;;;;;10.83;5.53;;;20.70;91.90;;;;;;5024707;28;20204;-67
2023/07/07 06:37:35;;;;;;;8.97;6.10;;;20.80;91.90;;;;;;5025714;28;20282;-67
2023/07/07 06:40:01;;;;;;;6.67;5.63;;;20.80;91.90;;;;;;5025648;28;20231;-67
2023/07/07 06:42:26;;;;;;;6.77;5.73;;;20.80;91.60;;;;;;5022933;28;20446;-67
2023/07/07 06:44:52;;;;;;;9.00;6.60;;;20.90;91.30;;;;;;5023901;28;20661;-68
2023/07/07 06:47:18;;;;;;;7.40;6.00;;;21.00;91.10;;;;;;5015278;28;20701;-67
2023/07/07 06:49:43;;;;;;;6.90;6.23;;;21.00;90.80;;;;;;5023683;28;20556;-67
2023/07/07 06:52:09;;;;;;;8.67;5.53;;;21.10;90.80;;;;;;5013557;28;20455;-67
2023/07/07 06:54:35;;;;;;;10.23;6.60;;;21.20;90.50;;;;;;5027951;28;20714;-67
2023/07/07 06:57:01;;;;;;;5.57;4.97;;;21.20;90.40;;;;;;5024852;28;20180;-68
2023/07/07 06:59:27;;;;;;;7.30;6.50;;;21.30;90.40;;;;;;5018745;28;20819;-68
2023/07/07 07:01:52;;;;;;;15.83;11.03;;;21.40;90.20;;;;;;5029762;28;20605;-68
2023/07/07 07:04:18;;;;;;;14.03;7.30;;;21.40;90.00;;;;;;5022131;28;20183;-68
2023/07/07 07:06:44;;;;;;;11.33;8.17;;;21.50;90.00;;;;;;5021892;28;20284;-68
2023/07/07 07:09:10;;;;;;;9.80;7.50;;;21.60;90.00;;;;;;5016913;28;20213;-68
2023/07/07 07:11:37;;;;;;;5.70;5.13;;;21.60;89.70;;;;;;5019298;28;20486;-68
2023/07/07 07:14:02;;;;;;;7.40;5.07;;;21.80;89.00;;;;;;5018346;28;20431;-67
2023/07/07 07:16:28;;;;;;;9.97;5.60;;;21.80;89.10;;;;;;5020598;28;20433;-67
2023/07/07 07:18:53;;;;;;;8.37;5.70;;;21.90;88.40;;;;;;5022783;28;20298;-68
2023/07/07 07:21:19;;;;;;;11.20;5.20;;;21.90;88.20;;;;;;5021557;28;20200;-67
2023/07/07 07:23:44;;;;;;;6.30;5.30;;;22.00;87.90;;;;;;5025094;28;20253;-67
2023/07/07 07:26:10;;;;;;;5.93;5.23;;;22.00;87.70;;;;;;5019938;28;20224;-68
2023/07/07 07:28:36;;;;;;;6.60;4.70;;;22.10;87.40;;;;;;5019283;28;20212;-67
2023/07/07 07:31:01;;;;;;;7.70;5.83;;;22.20;87.20;;;;;;5021714;28;20181;-68
2023/07/07 07:33:27;;;;;;;16.17;12.70;;;22.30;86.80;;;;;;5019537;28;20611;-68
2023/07/07 07:35:52;;;;;;;12.17;8.60;;;22.30;86.40;;;;;;5022557;28;20180;-68
2023/07/07 07:38:22;;;;;;;14.00;8.70;;;22.40;86.70;;;;;;5020792;28;20713;-68
2023/07/07 07:40:52;;;;;;;11.43;9.30;;;22.50;86.20;;;;;;5019654;28;20208;-68
2023/07/07 07:43:19;;;;;;;7.80;6.87;;;22.50;86.00;;;;;;5022064;28;20431;-69
2023/07/07 07:45:44;;;;;;;8.27;7.47;;;22.60;85.70;;;;;;5018410;28;20469;-68
2023/07/07 07:48:10;;;;;;;6.23;5.30;;;22.70;85.70;;;;;;5018742;28;20447;-68
2023/07/07 07:50:36;;;;;;;9.43;5.57;;;22.70;85.50;;;;;;5016634;28;20191;-68
2023/07/07 07:53:01;;;;;;;10.00;6.60;;;22.80;85.00;;;;;;5014419;28;20188;-68
2023/07/07 07:55:27;;;;;;;18.60;6.43;;;22.80;84.90;;;;;;5018372;28;20196;-69
2023/07/07 07:57:53;;;;;;;7.17;4.90;;;22.90;84.60;;;;;;5018516;28;20184;-69
2023/07/07 08:00:19;;;;;;;11.80;5.00;;;23.00;84.20;;;;;;5024224;28;20435;-68
2023/07/07 08:02:48;;;;;;;6.93;5.00;;;23.00;84.00;;;;;;5024560;28;20255;-69
2023/07/07 08:05:14;;;;;;;5.40;4.90;;;23.10;84.00;;;;;;5028726;28;22010;-69
2023/07/07 08:07:39;;;;;;;5.90;4.63;;;23.10;83.80;;;;;;5020623;28;20475;-69
2023/07/07 08:10:06;;;;;;;6.20;5.10;;;23.20;83.50;;;;;;5020048;28;20818;-68
2023/07/07 08:12:33;;;;;;;7.03;4.70;;;23.30;84.00;;;;;;5022241;28;20204;-70
2023/07/07 08:14:58;;;;;;;9.30;5.00;;;23.30;83.30;;;;;;5017025;28;20439;-69
2023/07/07 08:17:24;;;;;;;5.50;4.73;;;23.40;83.10;;;;;;5020992;28;21626;-68
2023/07/07 08:19:50;;;;;;;7.20;5.63;;;23.50;83.10;;;;;;5021089;28;20239;-68
2023/07/07 08:22:18;;;;;;;9.67;4.50;;;23.50;83.10;;;;;;5019753;28;20437;-68
2023/07/07 08:24:56;;;;;;;5.70;5.03;;;23.60;82.70;;;;;;5019798;28;20431;-69
2023/07/07 08:27:24;;;;;;;6.57;4.90;;;23.70;82.60;;;;;;5019944;28;20470;-69
2023/07/07 08:29:50;;;;;;;8.63;4.87;;;23.80;82.30;;;;;;5022788;28;20463;-69
2023/07/07 08:32:21;;;;;;;5.43;4.70;;;23.80;82.00;;;;;;5024826;28;20419;-69
2023/07/07 08:34:47;;;;;;;7.93;5.40;;;23.80;81.90;;;;;;5023697;28;20429;-69
2023/07/07 08:37:12;;;;;;;6.20;5.40;;;23.90;81.70;;;;;;5022195;28;20792;-69
2023/07/07 08:39:38;;;;;;;5.30;4.80;;;24.00;81.30;;;;;;5021301;28;20463;-69
2023/07/07 08:42:20;;;;;;;6.43;5.00;;;24.10;81.30;;;;;;5023650;28;20234;-69
2023/07/07 08:44:46;;;;;;;6.47;4.83;;;24.20;81.70;;;;;;5019591;28;20205;-69
2023/07/07 08:48:02;;;;;;;7.03;5.23;;;24.20;81.50;;;;;;5018493;28;20474;-68
2023/07/07 08:50:47;;;;;;;7.07;5.50;;;24.30;81.40;;;;;;4978038;28;20200;-67
2023/07/07 08:53:34;;;;;;;6.73;5.10;;;24.40;81.50;;;;;;5015906;28;20526;-67
2023/07/07 08:56:03;;;;;;;7.63;5.37;;;24.50;80.80;;;;;;5018922;28;20443;-67
2023/07/07 08:58:49;;;;;;;8.10;7.30;;;24.60;80.80;;;;;;5021230;28;20554;-68
2023/07/07 09:01:42;;;;;;;9.47;7.27;;;24.70;80.70;;;;;;5022568;28;20434;-68
2023/07/07 09:04:27;;;;;;;5.93;5.33;;;24.80;80.80;;;;;;5025729;28;20563;-68
2023/07/07 09:07:19;;;;;;;6.83;5.50;;;24.80;80.00;;;;;;5022934;28;20467;-67
2023/07/07 09:10:00;;;;;;;7.63;4.73;;;24.90;78.80;;;;;;5020068;28;20458;-68
2023/07/07 09:12:44;;;;;;;6.47;4.90;;;25.00;79.10;;;;;;5019465;28;20474;-68
2023/07/07 09:15:17;;;;;;;6.50;5.10;;;25.10;79.50;;;;;;5019829;28;20707;-68
2023/07/07 09:17:48;;;;;;;8.40;6.17;;;25.20;78.80;;;;;;5024180;28;20414;-68
2023/07/07 09:20:17;;;;;;;6.97;6.27;;;25.30;78.60;;;;;;5022419;28;20757;-67
2023/07/07 09:22:51;;;;;;;6.60;5.90;;;25.40;78.50;;;;;;5023441;28;20957;-67
2023/07/07 09:25:22;;;;;;;5.83;5.23;;;25.40;78.30;;;;;;5021717;28;20458;-67
2023/07/07 09:28:00;;;;;;;7.17;6.47;;;25.50;78.20;;;;;;5033607;28;20470;-67
2023/07/07 09:30:34;;;;;;;6.40;5.80;;;25.60;78.10;;;;;;5024866;28;20419;-68
2023/07/07 09:33:00;;;;;;;6.20;5.60;;;25.70;77.60;;;;;;5024314;28;21165;-68
2023/07/07 09:35:32;;;;;;;6.87;5.37;;;25.80;76.50;;;;;;5025535;28;20435;-68
2023/07/07 09:38:16;;;;;;;5.83;5.23;;;25.90;76.70;;;;;;5023474;28;20961;-68
2023/07/07 09:41:08;;;;;;;6.20;5.47;;;26.00;76.20;;;;;;5019271;28;20466;-69
2023/07/07 09:43:37;;;;;;;6.63;5.93;;;26.10;75.40;;;;;;5017967;28;20448;-68
2023/07/07 09:46:02;;;;;;;6.63;5.60;;;26.10;75.50;;;;;;5016022;28;20512;-68
2023/07/07 09:48:37;;;;;;;5.77;5.17;;;26.20;75.60;;;;;;5021429;28;20458;-68
2023/07/07 09:51:13;;;;;;;7.30;6.33;;;26.30;75.40;;;;;;5019751;28;20187;-68
2023/07/07 09:53:40;;;;;;;6.17;5.57;;;26.30;75.40;;;;;;5019573;28;21129;-68
2023/07/07 09:56:13;;;;;;;6.50;5.73;;;26.40;75.70;;;;;;5019196;28;20436;-67
2023/07/07 09:58:50;;;;;;;7.40;5.80;;;26.50;75.40;;;;;;5022698;28;20478;-68
2023/07/07 10:01:18;;;;;;;7.10;5.57;;;26.60;74.60;;;;;;5025031;28;20976;-68
2023/07/07 10:03:46;;;;;;;6.47;5.33;;;26.70;74.40;;;;;;5021201;28;20426;-67
2023/07/07 10:06:32;;;;;;;8.60;5.90;;;26.80;73.90;;;;;;5020160;28;20903;-68
2023/07/07 10:08:58;;;;;;;6.93;5.90;;;26.80;73.20;;;;;;5021915;28;20443;-68
2023/07/07 10:11:36;;;;;;;6.33;5.20;;;27.00;73.30;;;;;;5024021;28;20459;-68
2023/07/07 10:14:04;;;;;;;6.43;5.77;;;27.00;72.60;;;;;;5021171;28;20497;-68
2023/07/07 10:16:32;;;;;;;6.63;5.43;;;27.10;72.40;;;;;;5021775;28;20538;-69
2023/07/07 10:19:04;;;;;;;7.10;5.63;;;27.10;72.60;;;;;;5019035;28;20539;-68
2023/07/07 10:21:30;;;;;;;6.57;5.80;;;27.20;72.20;;;;;;5019137;28;20426;-68
2023/07/07 10:23:56;;;;;;;7.57;6.37;;;27.30;70.40;;;;;;5018011;28;21059;-70
2023/07/07 10:26:23;;;;;;;6.43;5.83;;;27.40;69.80;;;;;;5018824;28;20196;-68
2023/07/07 10:28:49;;;;;;;6.93;5.80;;;27.40;69.50;;;;;;5022332;28;20756;-72
2023/07/07 10:31:16;;;;;;;9.20;6.77;;;27.50;69.50;;;;;;5019771;28;20439;-69
2023/07/07 10:33:42;;;;;;;8.20;6.57;;;27.50;67.10;;;;;;5025025;28;20717;-69
2023/07/07 10:36:27;;;;;;;6.40;5.80;;;27.50;67.10;;;;;;5019431;28;20459;-68
2023/07/07 10:38:56;;;;;;;6.87;5.60;;;27.60;68.10;;;;;;5020982;28;20909;-68
2023/07/07 10:41:27;;;;;;;6.63;6.03;;;27.70;67.30;;;;;;5020398;28;20454;-68
2023/07/07 10:43:53;;;;;;;8.00;6.57;;;27.70;67.40;;;;;;5024246;28;20800;-67
2023/07/07 10:46:19;;;;;;;9.60;6.77;;;27.80;66.20;;;;;;5017474;28;21038;-68
2023/07/07 10:48:46;;;;;;;8.27;7.20;;;27.90;65.60;;;;;;5018732;28;20844;-69
2023/07/07 10:51:47;;;;;;;7.70;6.87;;;28.00;64.90;;;;;;5021915;28;20500;-68
2023/07/07 10:54:21;;;;;;;9.60;6.83;;;28.10;66.00;;;;;;4962834;28;20432;-67
2023/07/07 10:56:52;;;;;;;7.20;6.50;;;28.20;66.10;;;;;;5013541;28;21176;-68
2023/07/07 10:59:45;;;;;;;7.10;6.40;;;28.30;65.50;;;;;;5019494;28;20449;-68
2023/07/07 11:02:35;;;;;;;10.10;6.43;;;28.40;64.20;;;;;;5021137;28;20427;-69
2023/07/07 11:05:12;;;;;;;7.20;6.40;;;28.40;63.60;;;;;;5023375;28;20557;-68
2023/07/07 11:07:53;;;;;;;9.03;8.10;;;28.40;64.10;;;;;;5024954;28;20566;-68
2023/07/07 11:10:48;;;;;;;9.70;6.83;;;28.60;62.80;;;;;;5019571;28;20619;-68
2023/07/07 11:13:57;;;;;;;8.33;7.53;;;28.70;61.80;;;;;;5003914;28;20459;-67
2023/07/07 11:16:25;;;;;;;9.97;8.07;;;28.80;61.80;;;;;;4996874;28;20815;-68
2023/07/07 11:19:06;;;;;;;7.97;6.70;;;29.00;60.60;;;;;;5017278;28;20450;-68
2023/07/07 11:22:08;;;;;;;8.90;6.60;;;29.00;60.00;;;;;;5011719;28;20427;-67
2023/07/07 11:24:54;;;;;;;10.70;7.50;;;29.20;59.00;;;;;;5022057;28;20794;-67
2023/07/07 11:27:20;;;;;;;11.30;9.63;;;29.20;58.70;;;;;;5021845;28;20473;-67
2023/07/07 11:29:54;;;;;;;9.07;7.80;;;29.40;57.60;;;;;;5021521;28;20566;-67
2023/07/07 11:32:42;;;;;;;9.73;8.47;;;29.50;57.60;;;;;;5019004;28;20191;-67
2023/07/07 11:35:24;;;;;;;12.90;8.00;;;29.60;57.50;;;;;;5024491;28;20411;-67
2023/07/07 11:37:55;;;;;;;8.43;7.63;;;29.70;57.20;;;;;;5020280;28;20431;-67
2023/07/07 11:40:49;;;;;;;8.80;7.47;;;29.80;56.90;;;;;;5020575;28;20553;-67
2023/07/07 11:43:35;;;;;;;8.87;7.80;;;30.00;55.30;;;;;;5023690;28;20411;-67
2023/07/07 11:46:44;;;;;;;9.33;8.43;;;30.20;54.20;;;;;;5021400;28;20874;-67
2023/07/07 11:49:38;;;;;;;8.77;7.87;;;30.40;53.90;;;;;;5019119;28;20533;-67
2023/07/07 11:52:39;;;;;;;9.10;8.20;;;30.60;52.80;;;;;;5016447;28;20661;-67
2023/07/07 11:55:23;;;;;;;8.80;7.90;;;30.80;52.50;;;;;;5021945;28;20415;-67
2023/07/07 11:58:08;;;;;;;9.90;8.70;;;30.90;51.60;;;;;;5017765;28;20959;-67
2023/07/07 12:01:00;;;;;;;9.20;8.10;;;31.10;51.30;;;;;;5022341;28;20470;-68
2023/07/07 12:03:44;;;;;;;10.67;7.97;;;31.50;51.50;;;;;;5024623;28;20927;-68
2023/07/07 12:06:18;;;;;;;9.83;8.00;;;31.80;50.40;;;;;;5020332;28;20463;-68
2023/07/07 12:08:58;;;;;;;12.13;8.20;;;32.30;50.10;;;;;;5016885;28;20431;-68
2023/07/07 12:11:27;;;;;;;12.57;8.70;;;33.30;49.60;;;;;;5018471;28;20495;-68
2023/07/07 12:13:59;;;;;;;9.60;8.20;;;34.60;47.80;;;;;;5033834;28;20418;-68
2023/07/07 12:16:27;;;;;;;10.97;8.37;;;35.80;44.60;;;;;;5019369;28;20411;-68
2023/07/07 12:19:20;;;;;;;11.63;8.50;;;36.70;43.30;;;;;;5019585;28;20745;-68
2023/07/07 12:21:49;;;;;;;9.93;8.90;;;37.60;42.20;;;;;;5018969;28;20423;-68
2023/07/07 12:24:24;;;;;;;10.10;8.60;;;37.90;41.10;;;;;;5013885;28;20406;-69
2023/07/07 12:27:08;;;;;;;13.13;11.90;;;38.30;40.10;;;;;;5017468;28;20458;-68
2023/07/07 12:29:39;;;;;;;10.73;9.63;;;38.30;38.80;;;;;;5018706;28;20455;-68
2023/07/07 12:32:05;;;;;;;8.90;8.00;;;38.30;38.60;;;;;;5018567;28;20867;-68
2023/07/07 12:34:40;;;;;;;9.63;8.73;;;38.20;38.10;;;;;;5022415;28;20431;-69
2023/07/07 12:37:17;;;;;;;10.20;9.23;;;38.00;37.70;;;;;;5025921;28;20438;-68
2023/07/07 12:39:51;;;;;;;11.93;9.37;;;38.00;37.90;;;;;;5027099;28;20452;-69
2023/07/07 12:42:16;;;;;;;9.67;8.77;;;37.90;36.60;;;;;;5024012;28;20760;-68
2023/07/07 12:44:42;;;;;;;9.40;8.50;;;37.70;35.90;;;;;;5027223;28;20505;-69
2023/07/07 12:47:40;;;;;;;9.27;8.30;;;37.60;34.50;;;;;;5023580;28;20291;-68
2023/07/07 12:50:36;;;;;;;10.30;9.30;;;37.70;34.70;;;;;;5008915;28;20439;-68
2023/07/07 12:53:10;;;;;;;8.27;7.10;;;37.70;35.70;;;;;;5023960;28;20434;-69
2023/07/07 12:55:38;;;;;;;8.40;7.60;;;37.70;35.60;;;;;;5015044;28;20402;-70
2023/07/07 12:58:07;;;;;;;9.53;7.80;;;37.70;36.60;;;;;;5024944;28;20439;-70
2023/07/07 13:00:39;;;;;;;10.70;8.47;;;37.80;36.30;;;;;;5023889;28;20407;-68
2023/07/07 13:03:11;;;;;;;9.73;8.43;;;37.90;35.60;;;;;;5024850;28;20806;-69